الصفحة الرئيسية
METAR-TAF:

METAR-TAF

مطار :

مطار دبي الدولي

إمارة دبي, الإمارات العربية المتحدة

دائرة عرض: 25-15-10N, خط طول: 055-21-52E, ارتفاع: 8 متر

مراقبة الطقس الحالي

تاريخ ووقت الإصدار 1ساعة و 1 دقيقة قبل الساعة 18:00UTC
ريح 4 عقدة من الشرق
درجة الحرارة 27°درجة مئوية
الرطوبة 42%
ضغط 1014 hPa
الرؤية 10 كم أو أكثر
الغيوم لا تقل 1500 م ولا وجود لمزنة ركامية السحاب الأسود

METAR: OMDB 041800Z 10004KT CAVOK 27/13 Q1014 NOSIG

زمن: 23:01 (19:01 UTC)

توقعات

تاريخ ووقت الإصدار 2ساعات و 1 دقيقة قبل الساعة 17:00UTC
التوقعات صالحة من04 الساعة 18 UTC إلى 06 الساعة 00 UTC
ريح 5 عقدة من الشرق
الرؤية 10 كم أو أكثر
الغيوم لا تقل 1500 م ولا وجود لمزنة ركامية السحاب الأسود
أصبح
من 05 الساعة 09 UTC إلى 05 الساعة 11 UTC
ريح 10 عقدة من الشمال/الشمال الغربي
أصبح
من 05 الساعة 16 UTC إلى 05 الساعة 18 UTC
ريح 5 عقدة من الجنوب/الجنوب الغربي

TAF: OMDB 041700Z 0418/0600 08005KT CAVOK BECMG 0509/0511 33010KT BECMG 0516/0518 20005KT

أرصاد الطقس والتوقعات من أكثر من 4000 مطار (تقارير الطقس للمطار METAR والتنبؤ بالطقس بالمطارTAF).

المحطات المتاحة هي النقط الصفراء والحمراء على الخريطة.

حرك المؤشر فوق النقطة لمعرفة اسم المحطة.

ثم انقر لمعرفة أرصاد وتوقعات الطقس.

لتغيير الخارطة: اضغط على الأزرار الخضراء مع رمز الصليب الأسود للتكبير. على الزر الأخضر مع شرطة للتصغير، أو على الأسهم الخضراء للخرائط المجاورة.


METAR-TAF: